sensor_id;sensor_type;location;lat;lon;timestamp;temperature;humidity
22544;DHT22;11438;52.044;8.716;2023-04-30T00:00:24;12.00;92.30
22544;DHT22;11438;52.044;8.716;2023-04-30T00:02:49;12.10;92.40
22544;DHT22;11438;52.044;8.716;2023-04-30T00:05:15;12.00;92.40
22544;DHT22;11438;52.044;8.716;2023-04-30T00:07:40;12.00;92.50
22544;DHT22;11438;52.044;8.716;2023-04-30T00:10:08;12.00;92.50
22544;DHT22;11438;52.044;8.716;2023-04-30T00:12:34;11.90;92.60
22544;DHT22;11438;52.044;8.716;2023-04-30T00:14:59;11.90;92.50
22544;DHT22;11438;52.044;8.716;2023-04-30T00:17:25;11.80;92.60
22544;DHT22;11438;52.044;8.716;2023-04-30T00:19:51;11.80;92.70
22544;DHT22;11438;52.044;8.716;2023-04-30T00:22:17;11.80;92.90
22544;DHT22;11438;52.044;8.716;2023-04-30T00:24:42;11.80;92.90
22544;DHT22;11438;52.044;8.716;2023-04-30T00:27:08;11.70;93.00
22544;DHT22;11438;52.044;8.716;2023-04-30T00:29:33;11.70;93.00
22544;DHT22;11438;52.044;8.716;2023-04-30T00:31:58;11.70;93.00
22544;DHT22;11438;52.044;8.716;2023-04-30T00:34:24;11.70;93.00
22544;DHT22;11438;52.044;8.716;2023-04-30T00:36:49;11.60;93.00
22544;DHT22;11438;52.044;8.716;2023-04-30T00:39:15;11.60;93.00
22544;DHT22;11438;52.044;8.716;2023-04-30T00:41:41;11.60;92.90
22544;DHT22;11438;52.044;8.716;2023-04-30T00:44:07;11.60;93.00
22544;DHT22;11438;52.044;8.716;2023-04-30T00:46:32;11.60;93.10
22544;DHT22;11438;52.044;8.716;2023-04-30T00:48:58;11.60;93.10
22544;DHT22;11438;52.044;8.716;2023-04-30T00:51:27;11.50;93.10
22544;DHT22;11438;52.044;8.716;2023-04-30T00:53:53;11.50;93.10
22544;DHT22;11438;52.044;8.716;2023-04-30T00:56:19;11.50;93.10
22544;DHT22;11438;52.044;8.716;2023-04-30T00:58:45;11.40;93.20
22544;DHT22;11438;52.044;8.716;2023-04-30T01:04:34;11.40;93.40
22544;DHT22;11438;52.044;8.716;2023-04-30T01:07:00;11.30;93.20
22544;DHT22;11438;52.044;8.716;2023-04-30T01:09:28;11.30;93.30
22544;DHT22;11438;52.044;8.716;2023-04-30T01:17:51;11.20;93.40
22544;DHT22;11438;52.044;8.716;2023-04-30T01:20:19;11.20;93.40
22544;DHT22;11438;52.044;8.716;2023-04-30T01:22:54;11.20;93.30
22544;DHT22;11438;52.044;8.716;2023-04-30T01:28:03;11.10;93.40
22544;DHT22;11438;52.044;8.716;2023-04-30T01:30:30;11.10;93.80
22544;DHT22;11438;52.044;8.716;2023-04-30T01:32:56;11.10;93.40
22544;DHT22;11438;52.044;8.716;2023-04-30T01:38:46;11.10;93.50
22544;DHT22;11438;52.044;8.716;2023-04-30T01:41:57;11.00;93.50
22544;DHT22;11438;52.044;8.716;2023-04-30T01:47:29;11.00;93.30
22544;DHT22;11438;52.044;8.716;2023-04-30T01:52:53;10.90;93.30
22544;DHT22;11438;52.044;8.716;2023-04-30T01:57:59;10.90;93.30
22544;DHT22;11438;52.044;8.716;2023-04-30T02:00:26;10.80;93.20
22544;DHT22;11438;52.044;8.716;2023-04-30T02:02:52;10.80;93.40
22544;DHT22;11438;52.044;8.716;2023-04-30T02:05:18;10.80;93.40
22544;DHT22;11438;52.044;8.716;2023-04-30T02:07:46;10.80;93.50
22544;DHT22;11438;52.044;8.716;2023-04-30T02:10:12;10.80;93.60
22544;DHT22;11438;52.044;8.716;2023-04-30T02:12:38;10.80;93.60
22544;DHT22;11438;52.044;8.716;2023-04-30T02:15:04;10.70;93.60
22544;DHT22;11438;52.044;8.716;2023-04-30T02:17:31;10.80;93.70
22544;DHT22;11438;52.044;8.716;2023-04-30T02:19:57;10.70;94.00
22544;DHT22;11438;52.044;8.716;2023-04-30T02:22:22;10.70;93.60
22544;DHT22;11438;52.044;8.716;2023-04-30T02:24:48;10.70;93.60
22544;DHT22;11438;52.044;8.716;2023-04-30T02:27:14;10.70;93.60
22544;DHT22;11438;52.044;8.716;2023-04-30T02:29:40;10.70;93.60
22544;DHT22;11438;52.044;8.716;2023-04-30T02:32:05;10.70;93.50
22544;DHT22;11438;52.044;8.716;2023-04-30T02:34:31;10.70;93.50
22544;DHT22;11438;52.044;8.716;2023-04-30T02:36:56;10.70;93.50
22544;DHT22;11438;52.044;8.716;2023-04-30T02:39:21;10.60;93.50
22544;DHT22;11438;52.044;8.716;2023-04-30T02:41:47;10.60;93.50
22544;DHT22;11438;52.044;8.716;2023-04-30T02:44:12;10.60;93.50
22544;DHT22;11438;52.044;8.716;2023-04-30T02:46:38;10.50;93.50
22544;DHT22;11438;52.044;8.716;2023-04-30T02:49:03;10.50;93.60
22544;DHT22;11438;52.044;8.716;2023-04-30T02:51:29;10.50;93.70
22544;DHT22;11438;52.044;8.716;2023-04-30T02:53:55;10.50;93.70
22544;DHT22;11438;52.044;8.716;2023-04-30T02:56:21;10.40;93.70
22544;DHT22;11438;52.044;8.716;2023-04-30T02:58:46;10.40;93.70
22544;DHT22;11438;52.044;8.716;2023-04-30T03:01:13;10.40;93.70
22544;DHT22;11438;52.044;8.716;2023-04-30T03:03:38;10.30;93.70
22544;DHT22;11438;52.044;8.716;2023-04-30T03:06:04;10.30;93.70
22544;DHT22;11438;52.044;8.716;2023-04-30T03:08:29;10.30;93.80
22544;DHT22;11438;52.044;8.716;2023-04-30T03:10:55;10.20;93.90
22544;DHT22;11438;52.044;8.716;2023-04-30T03:13:20;10.20;93.90
22544;DHT22;11438;52.044;8.716;2023-04-30T03:15:46;10.10;93.80
22544;DHT22;11438;52.044;8.716;2023-04-30T03:18:11;10.10;93.80
22544;DHT22;11438;52.044;8.716;2023-04-30T03:20:37;10.10;93.80
22544;DHT22;11438;52.044;8.716;2023-04-30T03:23:02;10.00;93.70
22544;DHT22;11438;52.044;8.716;2023-04-30T03:25:28;10.00;93.70
22544;DHT22;11438;52.044;8.716;2023-04-30T03:27:53;10.00;93.70
22544;DHT22;11438;52.044;8.716;2023-04-30T03:30:19;9.90;93.70
22544;DHT22;11438;52.044;8.716;2023-04-30T03:32:44;9.90;93.70
22544;DHT22;11438;52.044;8.716;2023-04-30T03:35:10;9.90;93.70
22544;DHT22;11438;52.044;8.716;2023-04-30T03:37:35;9.80;93.80
22544;DHT22;11438;52.044;8.716;2023-04-30T03:40:01;9.80;93.70
22544;DHT22;11438;52.044;8.716;2023-04-30T03:42:26;9.80;93.80
22544;DHT22;11438;52.044;8.716;2023-04-30T03:44:52;9.80;93.70
22544;DHT22;11438;52.044;8.716;2023-04-30T03:47:17;9.80;93.70
22544;DHT22;11438;52.044;8.716;2023-04-30T03:49:43;9.80;93.70
22544;DHT22;11438;52.044;8.716;2023-04-30T03:52:08;9.70;93.60
22544;DHT22;11438;52.044;8.716;2023-04-30T03:54:34;9.70;93.60
22544;DHT22;11438;52.044;8.716;2023-04-30T03:57:00;9.70;93.70
22544;DHT22;11438;52.044;8.716;2023-04-30T03:59:28;9.70;93.60
22544;DHT22;11438;52.044;8.716;2023-04-30T04:01:53;9.70;93.60
22544;DHT22;11438;52.044;8.716;2023-04-30T04:04:20;9.60;93.70
22544;DHT22;11438;52.044;8.716;2023-04-30T04:06:45;9.60;93.70
22544;DHT22;11438;52.044;8.716;2023-04-30T04:09:11;9.60;94.00
22544;DHT22;11438;52.044;8.716;2023-04-30T04:11:36;9.60;93.60
22544;DHT22;11438;52.044;8.716;2023-04-30T04:14:01;9.60;93.70
22544;DHT22;11438;52.044;8.716;2023-04-30T04:16:27;9.60;93.70
22544;DHT22;11438;52.044;8.716;2023-04-30T04:18:52;9.60;93.70
22544;DHT22;11438;52.044;8.716;2023-04-30T04:21:18;9.60;93.80
22544;DHT22;11438;52.044;8.716;2023-04-30T04:23:44;9.60;93.80
22544;DHT22;11438;52.044;8.716;2023-04-30T04:26:09;9.60;93.80
22544;DHT22;11438;52.044;8.716;2023-04-30T04:28:35;9.60;93.70
22544;DHT22;11438;52.044;8.716;2023-04-30T04:31:01;9.60;93.70
22544;DHT22;11438;52.044;8.716;2023-04-30T04:33:27;9.60;93.60
22544;DHT22;11438;52.044;8.716;2023-04-30T04:35:53;9.50;93.60
22544;DHT22;11438;52.044;8.716;2023-04-30T04:38:18;9.50;93.60
22544;DHT22;11438;52.044;8.716;2023-04-30T04:40:53;9.50;93.70
22544;DHT22;11438;52.044;8.716;2023-04-30T04:43:19;9.50;93.80
22544;DHT22;11438;52.044;8.716;2023-04-30T04:45:44;9.50;93.80
22544;DHT22;11438;52.044;8.716;2023-04-30T04:48:10;9.50;94.00
22544;DHT22;11438;52.044;8.716;2023-04-30T04:50:35;9.50;94.10
22544;DHT22;11438;52.044;8.716;2023-04-30T04:53:01;9.50;94.10
22544;DHT22;11438;52.044;8.716;2023-04-30T04:55:26;9.50;94.10
22544;DHT22;11438;52.044;8.716;2023-04-30T04:57:52;9.50;94.10
22544;DHT22;11438;52.044;8.716;2023-04-30T05:00:17;9.50;94.10
22544;DHT22;11438;52.044;8.716;2023-04-30T05:02:43;9.50;94.20
22544;DHT22;11438;52.044;8.716;2023-04-30T05:05:09;9.50;94.30
22544;DHT22;11438;52.044;8.716;2023-04-30T05:07:35;9.50;94.30
22544;DHT22;11438;52.044;8.716;2023-04-30T05:10:00;9.50;94.40
22544;DHT22;11438;52.044;8.716;2023-04-30T05:12:26;9.50;94.40
22544;DHT22;11438;52.044;8.716;2023-04-30T05:14:51;9.60;94.50
22544;DHT22;11438;52.044;8.716;2023-04-30T05:17:17;9.60;94.60
22544;DHT22;11438;52.044;8.716;2023-04-30T05:19:42;9.60;94.60
22544;DHT22;11438;52.044;8.716;2023-04-30T05:22:08;9.60;94.70
22544;DHT22;11438;52.044;8.716;2023-04-30T05:24:33;9.60;94.70
22544;DHT22;11438;52.044;8.716;2023-04-30T05:26:59;9.60;94.80
22544;DHT22;11438;52.044;8.716;2023-04-30T05:29:27;9.70;94.90
22544;DHT22;11438;52.044;8.716;2023-04-30T05:31:52;9.70;95.00
22544;DHT22;11438;52.044;8.716;2023-04-30T05:34:18;9.70;95.00
22544;DHT22;11438;52.044;8.716;2023-04-30T05:36:44;9.70;95.10
22544;DHT22;11438;52.044;8.716;2023-04-30T05:39:09;9.70;95.20
22544;DHT22;11438;52.044;8.716;2023-04-30T05:41:35;9.80;95.20
22544;DHT22;11438;52.044;8.716;2023-04-30T05:44:00;9.80;95.30
22544;DHT22;11438;52.044;8.716;2023-04-30T05:46:27;9.80;95.30
22544;DHT22;11438;52.044;8.716;2023-04-30T05:48:52;9.80;95.50
22544;DHT22;11438;52.044;8.716;2023-04-30T05:51:18;9.80;95.50
22544;DHT22;11438;52.044;8.716;2023-04-30T05:53:43;9.90;95.60
22544;DHT22;11438;52.044;8.716;2023-04-30T05:56:09;9.90;95.70
22544;DHT22;11438;52.044;8.716;2023-04-30T05:58:34;9.90;95.70
22544;DHT22;11438;52.044;8.716;2023-04-30T06:01:00;10.00;95.70
22544;DHT22;11438;52.044;8.716;2023-04-30T06:03:25;10.00;95.90
22544;DHT22;11438;52.044;8.716;2023-04-30T06:05:51;10.00;95.90
22544;DHT22;11438;52.044;8.716;2023-04-30T06:08:16;10.10;96.00
22544;DHT22;11438;52.044;8.716;2023-04-30T06:10:42;10.10;96.00
22544;DHT22;11438;52.044;8.716;2023-04-30T06:13:07;10.20;96.00
22544;DHT22;11438;52.044;8.716;2023-04-30T06:15:33;10.20;96.20
22544;DHT22;11438;52.044;8.716;2023-04-30T06:17:58;10.30;96.20
22544;DHT22;11438;52.044;8.716;2023-04-30T06:20:24;10.30;96.40
22544;DHT22;11438;52.044;8.716;2023-04-30T06:22:51;10.40;96.70
22544;DHT22;11438;52.044;8.716;2023-04-30T06:25:17;10.40;96.70
22544;DHT22;11438;52.044;8.716;2023-04-30T06:27:42;10.50;96.80
22544;DHT22;11438;52.044;8.716;2023-04-30T06:30:08;10.50;96.70
22544;DHT22;11438;52.044;8.716;2023-04-30T06:32:34;10.60;96.70
22544;DHT22;11438;52.044;8.716;2023-04-30T06:35:00;10.60;96.80
22544;DHT22;11438;52.044;8.716;2023-04-30T06:37:25;10.70;96.70
22544;DHT22;11438;52.044;8.716;2023-04-30T06:39:51;10.80;96.60
22544;DHT22;11438;52.044;8.716;2023-04-30T06:42:16;10.80;96.60
22544;DHT22;11438;52.044;8.716;2023-04-30T06:44:42;10.90;96.60
22544;DHT22;11438;52.044;8.716;2023-04-30T06:47:07;10.90;96.60
22544;DHT22;11438;52.044;8.716;2023-04-30T06:49:33;11.00;96.80
22544;DHT22;11438;52.044;8.716;2023-04-30T06:51:58;11.00;96.60
22544;DHT22;11438;52.044;8.716;2023-04-30T06:54:24;11.10;96.50
22544;DHT22;11438;52.044;8.716;2023-04-30T06:56:52;11.20;96.40
22544;DHT22;11438;52.044;8.716;2023-04-30T06:59:17;11.20;96.30
22544;DHT22;11438;52.044;8.716;2023-04-30T07:01:43;11.20;96.10
22544;DHT22;11438;52.044;8.716;2023-04-30T07:04:08;11.30;96.20
22544;DHT22;11438;52.044;8.716;2023-04-30T07:06:34;11.40;96.20
22544;DHT22;11438;52.044;8.716;2023-04-30T07:08:59;11.50;96.20
22544;DHT22;11438;52.044;8.716;2023-04-30T07:11:25;11.50;96.00
22544;DHT22;11438;52.044;8.716;2023-04-30T07:13:51;11.60;96.10
22544;DHT22;11438;52.044;8.716;2023-04-30T07:16:16;11.60;96.00
22544;DHT22;11438;52.044;8.716;2023-04-30T07:18:42;11.70;95.90
22544;DHT22;11438;52.044;8.716;2023-04-30T07:21:07;11.80;95.80
22544;DHT22;11438;52.044;8.716;2023-04-30T07:23:33;11.90;95.90
22544;DHT22;11438;52.044;8.716;2023-04-30T07:25:59;12.00;95.90
22544;DHT22;11438;52.044;8.716;2023-04-30T07:28:24;12.00;96.00
22544;DHT22;11438;52.044;8.716;2023-04-30T07:30:50;12.20;95.80
22544;DHT22;11438;52.044;8.716;2023-04-30T07:33:16;12.30;95.60
22544;DHT22;11438;52.044;8.716;2023-04-30T07:35:42;12.30;95.50
22544;DHT22;11438;52.044;8.716;2023-04-30T07:38:07;12.40;95.50
22544;DHT22;11438;52.044;8.716;2023-04-30T07:40:33;12.50;95.30
22544;DHT22;11438;52.044;8.716;2023-04-30T07:42:58;12.60;95.20
22544;DHT22;11438;52.044;8.716;2023-04-30T07:45:23;12.60;94.90
22544;DHT22;11438;52.044;8.716;2023-04-30T07:47:49;12.70;94.80
22544;DHT22;11438;52.044;8.716;2023-04-30T07:50:14;12.70;94.80
22544;DHT22;11438;52.044;8.716;2023-04-30T07:52:41;12.80;94.40
22544;DHT22;11438;52.044;8.716;2023-04-30T07:55:07;12.90;94.00
22544;DHT22;11438;52.044;8.716;2023-04-30T07:57:32;12.90;94.20
22544;DHT22;11438;52.044;8.716;2023-04-30T07:59:58;12.90;94.30
22544;DHT22;11438;52.044;8.716;2023-04-30T08:02:23;12.90;94.30
22544;DHT22;11438;52.044;8.716;2023-04-30T08:04:49;12.90;94.30
22544;DHT22;11438;52.044;8.716;2023-04-30T08:07:14;13.00;93.90
22544;DHT22;11438;52.044;8.716;2023-04-30T08:09:40;13.10;94.00
22544;DHT22;11438;52.044;8.716;2023-04-30T08:12:07;13.10;93.90
22544;DHT22;11438;52.044;8.716;2023-04-30T08:14:33;13.10;93.80
22544;DHT22;11438;52.044;8.716;2023-04-30T08:16:59;13.10;93.80
22544;DHT22;11438;52.044;8.716;2023-04-30T08:19:25;13.20;93.80
22544;DHT22;11438;52.044;8.716;2023-04-30T08:21:51;13.20;93.70
22544;DHT22;11438;52.044;8.716;2023-04-30T08:24:17;13.30;93.50
22544;DHT22;11438;52.044;8.716;2023-04-30T08:26:42;13.30;93.20
22544;DHT22;11438;52.044;8.716;2023-04-30T08:29:08;13.40;93.10
22544;DHT22;11438;52.044;8.716;2023-04-30T08:31:34;13.40;93.20
22544;DHT22;11438;52.044;8.716;2023-04-30T08:33:59;13.50;93.20
22544;DHT22;11438;52.044;8.716;2023-04-30T08:36:25;13.50;93.70
22544;DHT22;11438;52.044;8.716;2023-04-30T08:38:52;13.50;92.90
22544;DHT22;11438;52.044;8.716;2023-04-30T08:41:19;13.60;92.60
22544;DHT22;11438;52.044;8.716;2023-04-30T08:43:47;13.70;92.80
22544;DHT22;11438;52.044;8.716;2023-04-30T08:46:17;13.70;92.50
22544;DHT22;11438;52.044;8.716;2023-04-30T08:48:44;13.80;92.30
22544;DHT22;11438;52.044;8.716;2023-04-30T08:51:10;13.80;92.00
22544;DHT22;11438;52.044;8.716;2023-04-30T08:53:36;13.90;92.00
22544;DHT22;11438;52.044;8.716;2023-04-30T08:56:05;13.90;91.70
22544;DHT22;11438;52.044;8.716;2023-04-30T08:58:30;13.90;91.80
22544;DHT22;11438;52.044;8.716;2023-04-30T09:01:00;14.00;91.60
22544;DHT22;11438;52.044;8.716;2023-04-30T09:03:25;14.00;92.00
22544;DHT22;11438;52.044;8.716;2023-04-30T09:05:53;14.00;91.80
22544;DHT22;11438;52.044;8.716;2023-04-30T09:08:39;14.10;91.90
22544;DHT22;11438;52.044;8.716;2023-04-30T09:11:37;14.10;91.70
22544;DHT22;11438;52.044;8.716;2023-04-30T09:14:02;14.20;91.70
22544;DHT22;11438;52.044;8.716;2023-04-30T09:16:29;14.20;91.80
22544;DHT22;11438;52.044;8.716;2023-04-30T09:19:09;14.30;91.50
22544;DHT22;11438;52.044;8.716;2023-04-30T09:21:35;14.30;91.50
22544;DHT22;11438;52.044;8.716;2023-04-30T09:24:02;14.40;91.30
22544;DHT22;11438;52.044;8.716;2023-04-30T09:26:33;14.40;91.70
22544;DHT22;11438;52.044;8.716;2023-04-30T09:28:59;14.50;91.50
22544;DHT22;11438;52.044;8.716;2023-04-30T09:31:32;14.50;91.70
22544;DHT22;11438;52.044;8.716;2023-04-30T09:33:57;14.60;91.70
22544;DHT22;11438;52.044;8.716;2023-04-30T09:36:23;14.60;91.70
22544;DHT22;11438;52.044;8.716;2023-04-30T09:38:49;14.70;91.70
22544;DHT22;11438;52.044;8.716;2023-04-30T09:41:25;14.70;91.70
22544;DHT22;11438;52.044;8.716;2023-04-30T09:43:52;14.80;91.80
22544;DHT22;11438;52.044;8.716;2023-04-30T09:46:18;14.80;92.00
22544;DHT22;11438;52.044;8.716;2023-04-30T09:48:44;14.90;91.40
22544;DHT22;11438;52.044;8.716;2023-04-30T09:51:10;14.90;91.60
22544;DHT22;11438;52.044;8.716;2023-04-30T09:53:41;15.00;91.60
22544;DHT22;11438;52.044;8.716;2023-04-30T09:56:07;15.10;91.30
22544;DHT22;11438;52.044;8.716;2023-04-30T09:58:37;15.10;91.40
22544;DHT22;11438;52.044;8.716;2023-04-30T10:01:08;15.20;91.30
22544;DHT22;11438;52.044;8.716;2023-04-30T10:03:38;15.20;90.60
22544;DHT22;11438;52.044;8.716;2023-04-30T10:06:05;15.30;90.10
22544;DHT22;11438;52.044;8.716;2023-04-30T10:08:35;15.30;90.10
22544;DHT22;11438;52.044;8.716;2023-04-30T10:11:04;15.40;90.10
22544;DHT22;11438;52.044;8.716;2023-04-30T10:13:37;15.40;90.20
22544;DHT22;11438;52.044;8.716;2023-04-30T10:16:10;15.40;90.10
22544;DHT22;11438;52.044;8.716;2023-04-30T10:18:38;15.50;90.20
22544;DHT22;11438;52.044;8.716;2023-04-30T10:21:06;15.50;90.10
22544;DHT22;11438;52.044;8.716;2023-04-30T10:23:37;15.50;90.10
22544;DHT22;11438;52.044;8.716;2023-04-30T10:26:03;15.50;90.00
22544;DHT22;11438;52.044;8.716;2023-04-30T10:28:30;15.60;90.10
22544;DHT22;11438;52.044;8.716;2023-04-30T10:30:56;15.70;90.00
22544;DHT22;11438;52.044;8.716;2023-04-30T10:33:36;15.70;90.20
22544;DHT22;11438;52.044;8.716;2023-04-30T10:36:06;15.70;89.90
22544;DHT22;11438;52.044;8.716;2023-04-30T10:38:36;15.70;90.40
22544;DHT22;11438;52.044;8.716;2023-04-30T10:41:05;15.80;90.60
22544;DHT22;11438;52.044;8.716;2023-04-30T10:43:31;15.90;90.20
22544;DHT22;11438;52.044;8.716;2023-04-30T10:45:59;15.90;89.60
22544;DHT22;11438;52.044;8.716;2023-04-30T10:48:25;15.90;89.70
22544;DHT22;11438;52.044;8.716;2023-04-30T10:50:56;16.00;88.80
22544;DHT22;11438;52.044;8.716;2023-04-30T10:53:22;16.00;88.60
22544;DHT22;11438;52.044;8.716;2023-04-30T10:55:57;16.10;88.20
22544;DHT22;11438;52.044;8.716;2023-04-30T10:58:24;16.10;88.50
22544;DHT22;11438;52.044;8.716;2023-04-30T11:01:14;16.20;85.80
22544;DHT22;11438;52.044;8.716;2023-04-30T11:09:15;16.30;85.20
22544;DHT22;11438;52.044;8.716;2023-04-30T11:11:43;16.40;85.50
22544;DHT22;11438;52.044;8.716;2023-04-30T11:14:10;16.40;83.70
22544;DHT22;11438;52.044;8.716;2023-04-30T11:16:36;16.40;83.80
22544;DHT22;11438;52.044;8.716;2023-04-30T11:19:13;16.50;82.10
22544;DHT22;11438;52.044;8.716;2023-04-30T11:27:19;16.60;84.10
22544;DHT22;11438;52.044;8.716;2023-04-30T11:29:45;16.60;83.40
22544;DHT22;11438;52.044;8.716;2023-04-30T11:32:12;16.60;82.90
22544;DHT22;11438;52.044;8.716;2023-04-30T11:34:38;16.70;84.90
22544;DHT22;11438;52.044;8.716;2023-04-30T11:37:05;16.70;82.80
22544;DHT22;11438;52.044;8.716;2023-04-30T11:39:31;16.80;83.50
22544;DHT22;11438;52.044;8.716;2023-04-30T11:42:01;16.80;81.80
22544;DHT22;11438;52.044;8.716;2023-04-30T11:44:27;16.80;82.20
22544;DHT22;11438;52.044;8.716;2023-04-30T11:46:53;16.90;81.80
22544;DHT22;11438;52.044;8.716;2023-04-30T11:49:22;16.90;80.80
22544;DHT22;11438;52.044;8.716;2023-04-30T11:51:48;16.90;79.90
22544;DHT22;11438;52.044;8.716;2023-04-30T11:54:15;16.90;81.10
22544;DHT22;11438;52.044;8.716;2023-04-30T11:56:45;17.00;79.40
22544;DHT22;11438;52.044;8.716;2023-04-30T11:59:13;17.00;80.90
22544;DHT22;11438;52.044;8.716;2023-04-30T12:01:39;17.00;80.70
22544;DHT22;11438;52.044;8.716;2023-04-30T12:04:05;17.10;80.90
22544;DHT22;11438;52.044;8.716;2023-04-30T12:06:31;17.10;79.90
22544;DHT22;11438;52.044;8.716;2023-04-30T12:08:58;17.10;79.90
22544;DHT22;11438;52.044;8.716;2023-04-30T12:11:28;17.10;79.00
22544;DHT22;11438;52.044;8.716;2023-04-30T12:14:04;17.10;79.40
22544;DHT22;11438;52.044;8.716;2023-04-30T12:17:04;17.20;80.00
22544;DHT22;11438;52.044;8.716;2023-04-30T12:19:29;17.20;80.20
22544;DHT22;11438;52.044;8.716;2023-04-30T12:21:55;17.30;80.70
22544;DHT22;11438;52.044;8.716;2023-04-30T12:24:21;17.30;78.60
22544;DHT22;11438;52.044;8.716;2023-04-30T12:26:52;17.30;79.30
22544;DHT22;11438;52.044;8.716;2023-04-30T12:29:18;17.40;79.00
22544;DHT22;11438;52.044;8.716;2023-04-30T12:31:47;17.40;80.30
22544;DHT22;11438;52.044;8.716;2023-04-30T12:34:14;17.40;80.80
22544;DHT22;11438;52.044;8.716;2023-04-30T12:36:40;17.50;79.80
22544;DHT22;11438;52.044;8.716;2023-04-30T12:39:13;17.50;80.50
22544;DHT22;11438;52.044;8.716;2023-04-30T12:41:43;17.50;80.40
22544;DHT22;11438;52.044;8.716;2023-04-30T12:46:45;17.60;79.30
22544;DHT22;11438;52.044;8.716;2023-04-30T12:49:11;17.70;78.90
22544;DHT22;11438;52.044;8.716;2023-04-30T12:51:38;17.70;78.70
22544;DHT22;11438;52.044;8.716;2023-04-30T12:54:06;17.80;77.40
22544;DHT22;11438;52.044;8.716;2023-04-30T12:56:32;17.80;77.20
22544;DHT22;11438;52.044;8.716;2023-04-30T12:58:57;17.80;77.70
22544;DHT22;11438;52.044;8.716;2023-04-30T13:01:23;17.80;76.80
22544;DHT22;11438;52.044;8.716;2023-04-30T13:03:50;17.90;77.30
22544;DHT22;11438;52.044;8.716;2023-04-30T13:06:16;17.90;75.60
22544;DHT22;11438;52.044;8.716;2023-04-30T13:08:43;17.90;73.90
22544;DHT22;11438;52.044;8.716;2023-04-30T13:11:08;17.90;74.70
22544;DHT22;11438;52.044;8.716;2023-04-30T13:13:34;17.90;73.00
22544;DHT22;11438;52.044;8.716;2023-04-30T13:15:59;17.90;75.30
22544;DHT22;11438;52.044;8.716;2023-04-30T13:18:25;18.00;74.00
22544;DHT22;11438;52.044;8.716;2023-04-30T13:20:52;18.00;74.20
22544;DHT22;11438;52.044;8.716;2023-04-30T13:23:17;18.00;75.10
22544;DHT22;11438;52.044;8.716;2023-04-30T13:25:43;18.10;73.60
22544;DHT22;11438;52.044;8.716;2023-04-30T13:28:09;18.10;73.40
22544;DHT22;11438;52.044;8.716;2023-04-30T13:30:34;18.10;73.60
22544;DHT22;11438;52.044;8.716;2023-04-30T13:33:00;18.10;72.40
22544;DHT22;11438;52.044;8.716;2023-04-30T13:35:26;18.20;72.80
22544;DHT22;11438;52.044;8.716;2023-04-30T13:37:52;18.20;73.30
22544;DHT22;11438;52.044;8.716;2023-04-30T13:40:19;18.20;73.70
22544;DHT22;11438;52.044;8.716;2023-04-30T13:42:46;18.20;71.70
22544;DHT22;11438;52.044;8.716;2023-04-30T13:45:12;18.20;72.90
22544;DHT22;11438;52.044;8.716;2023-04-30T13:47:37;18.30;73.40
22544;DHT22;11438;52.044;8.716;2023-04-30T13:50:04;18.30;71.90
22544;DHT22;11438;52.044;8.716;2023-04-30T13:52:29;18.30;72.20
22544;DHT22;11438;52.044;8.716;2023-04-30T13:54:55;18.30;72.80
22544;DHT22;11438;52.044;8.716;2023-04-30T13:57:22;18.30;72.40
22544;DHT22;11438;52.044;8.716;2023-04-30T13:59:48;18.30;72.20
22544;DHT22;11438;52.044;8.716;2023-04-30T14:02:13;18.40;71.30
22544;DHT22;11438;52.044;8.716;2023-04-30T14:04:39;18.40;71.30
22544;DHT22;11438;52.044;8.716;2023-04-30T14:07:04;18.40;70.80
22544;DHT22;11438;52.044;8.716;2023-04-30T14:09:30;18.40;70.90
22544;DHT22;11438;52.044;8.716;2023-04-30T14:11:56;18.40;71.20
22544;DHT22;11438;52.044;8.716;2023-04-30T14:14:23;18.40;70.50
22544;DHT22;11438;52.044;8.716;2023-04-30T14:16:49;18.40;70.10
22544;DHT22;11438;52.044;8.716;2023-04-30T14:19:14;18.40;71.10
22544;DHT22;11438;52.044;8.716;2023-04-30T14:21:40;18.40;71.00
22544;DHT22;11438;52.044;8.716;2023-04-30T14:24:06;18.40;71.40
22544;DHT22;11438;52.044;8.716;2023-04-30T14:26:32;18.40;70.50
22544;DHT22;11438;52.044;8.716;2023-04-30T14:28:57;18.40;71.60
22544;DHT22;11438;52.044;8.716;2023-04-30T14:31:23;18.40;71.80
22544;DHT22;11438;52.044;8.716;2023-04-30T14:33:48;18.50;72.10
22544;DHT22;11438;52.044;8.716;2023-04-30T14:36:14;18.50;71.80
22544;DHT22;11438;52.044;8.716;2023-04-30T14:38:39;18.50;71.40
22544;DHT22;11438;52.044;8.716;2023-04-30T14:41:05;18.50;71.80
22544;DHT22;11438;52.044;8.716;2023-04-30T14:43:31;18.50;70.90
22544;DHT22;11438;52.044;8.716;2023-04-30T14:45:56;18.50;70.20
22544;DHT22;11438;52.044;8.716;2023-04-30T14:48:22;18.50;71.30
22544;DHT22;11438;52.044;8.716;2023-04-30T14:50:47;18.50;71.60
22544;DHT22;11438;52.044;8.716;2023-04-30T14:53:13;18.50;71.20
22544;DHT22;11438;52.044;8.716;2023-04-30T14:55:38;18.50;71.40
22544;DHT22;11438;52.044;8.716;2023-04-30T14:58:04;18.60;71.60
22544;DHT22;11438;52.044;8.716;2023-04-30T15:00:30;18.60;71.80
22544;DHT22;11438;52.044;8.716;2023-04-30T15:02:56;18.60;71.60
22544;DHT22;11438;52.044;8.716;2023-04-30T15:05:21;18.60;72.40
22544;DHT22;11438;52.044;8.716;2023-04-30T15:07:47;18.70;70.30
22544;DHT22;11438;52.044;8.716;2023-04-30T15:10:12;18.70;69.80
22544;DHT22;11438;52.044;8.716;2023-04-30T15:12:38;18.70;70.90
22544;DHT22;11438;52.044;8.716;2023-04-30T15:15:04;18.70;70.50
22544;DHT22;11438;52.044;8.716;2023-04-30T15:17:30;18.70;70.00
22544;DHT22;11438;52.044;8.716;2023-04-30T15:19:59;18.70;69.80
22544;DHT22;11438;52.044;8.716;2023-04-30T15:22:26;18.70;70.00
22544;DHT22;11438;52.044;8.716;2023-04-30T15:24:52;18.70;69.10
22544;DHT22;11438;52.044;8.716;2023-04-30T15:27:18;18.70;69.60
22544;DHT22;11438;52.044;8.716;2023-04-30T15:29:43;18.80;69.00
22544;DHT22;11438;52.044;8.716;2023-04-30T15:32:11;18.80;69.80
22544;DHT22;11438;52.044;8.716;2023-04-30T15:34:36;18.80;68.70
22544;DHT22;11438;52.044;8.716;2023-04-30T15:37:02;18.70;68.10
22544;DHT22;11438;52.044;8.716;2023-04-30T15:39:27;18.80;68.50
22544;DHT22;11438;52.044;8.716;2023-04-30T15:41:53;18.80;68.30
22544;DHT22;11438;52.044;8.716;2023-04-30T15:44:18;18.80;69.00
22544;DHT22;11438;52.044;8.716;2023-04-30T15:46:44;18.80;69.30
22544;DHT22;11438;52.044;8.716;2023-04-30T15:49:09;18.80;69.10
22544;DHT22;11438;52.044;8.716;2023-04-30T15:51:35;18.80;69.80
22544;DHT22;11438;52.044;8.716;2023-04-30T15:54:01;18.80;69.90
22544;DHT22;11438;52.044;8.716;2023-04-30T15:56:27;18.80;68.80
22544;DHT22;11438;52.044;8.716;2023-04-30T15:58:53;18.80;68.10
22544;DHT22;11438;52.044;8.716;2023-04-30T16:01:19;18.80;68.40
22544;DHT22;11438;52.044;8.716;2023-04-30T16:03:44;18.80;67.70
22544;DHT22;11438;52.044;8.716;2023-04-30T16:06:10;18.80;68.00